Wroughton, United Kingdom
Current Conditions -  °F | °C
As of 5:32 AM on Wednesday 26 Nov 2014 (Local Time) from EGVA Reporting Station
Haze Haze  
Wind Chill:   Ceiling: 500
Heat Index:   Visibility: 4mi
Dew Point:   Wind: 5mph
Humidity: 100%   Direction: 30°NNE
Pressure: 29.89"   Gusts: NA
Location:  51.52°N, 1.8°W
Report Text: EGVA 260532Z AUTO 03004KT 6000 R27/1400 BR OVC005 07/07 A2989 RMK AO2 RAE0525DZB0525E0532 $
Loading
Personal Weather Stations






























Interactive Weather Map New forecast layout! Learn more

10-Day Weather Forecast

Advertisements
Track Severe Weather on mobile